createdAt,value
2022-09-23T00:02:07.518Z,10.18
2022-09-23T00:07:10.558Z,10.25
2022-09-23T00:12:13.355Z,10.42
2022-09-23T00:17:16.261Z,10.50
2022-09-23T00:22:19.162Z,10.63
2022-09-23T00:27:22.066Z,10.80
2022-09-23T00:32:25.116Z,10.79
2022-09-23T00:37:28.948Z,10.74
2022-09-23T00:42:32.008Z,10.76
2022-09-23T00:47:54.982Z,10.74
2022-09-23T00:53:01.336Z,10.67
2022-09-23T00:58:08.106Z,10.69
2022-09-23T01:03:12.128Z,10.90
2022-09-23T01:08:15.960Z,11.16
2022-09-23T01:13:27.013Z,11.34
2022-09-23T01:18:57.430Z,11.44
2022-09-23T01:24:18.593Z,11.63
2022-09-23T01:30:03.445Z,11.74
2022-09-23T01:35:15.403Z,11.76
2022-09-23T01:40:42.868Z,11.78
2022-09-23T01:45:48.877Z,11.76
2022-09-23T01:50:57.758Z,11.81
2022-09-23T01:56:05.515Z,11.82
2022-09-23T02:01:10.215Z,11.80
2022-09-23T02:06:23.099Z,11.82
2022-09-23T02:11:26.991Z,11.84
2022-09-23T02:16:51.966Z,11.86
2022-09-23T02:22:09.245Z,11.87
2022-09-23T02:27:31.552Z,11.91
2022-09-23T02:33:07.221Z,11.96
2022-09-23T02:38:31.735Z,12.00
2022-09-23T02:43:45.389Z,11.98
2022-09-23T02:48:56.995Z,11.89
2022-09-23T02:54:00.187Z,11.81
2022-09-23T02:59:04.301Z,11.73
2022-09-23T03:04:21.688Z,11.69
2022-09-23T03:09:33.802Z,11.64
2022-09-23T03:14:51.040Z,11.58
2022-09-23T03:19:53.843Z,11.41
2022-09-23T03:25:03.813Z,11.31
2022-09-23T03:30:08.464Z,11.25
2022-09-23T03:40:41.999Z,11.14
2022-09-23T03:45:46.849Z,11.17
2022-09-23T03:50:49.873Z,11.29
2022-09-23T03:55:52.676Z,11.35
2022-09-23T04:00:55.704Z,11.41
2022-09-23T04:05:58.595Z,11.27
2022-09-23T04:11:02.458Z,10.96
2022-09-23T04:16:05.989Z,10.84
2022-09-23T04:21:09.141Z,10.81
2022-09-23T04:26:12.862Z,10.87
2022-09-23T04:31:16.140Z,10.99
2022-09-23T04:36:19.590Z,11.10
2022-09-23T04:41:22.495Z,11.28
2022-09-23T04:46:25.568Z,11.53
2022-09-23T04:51:29.026Z,11.86
2022-09-23T04:56:32.948Z,12.95
2022-09-23T05:01:36.672Z,14.54
2022-09-23T05:06:40.188Z,16.12
2022-09-23T05:11:44.029Z,15.95
2022-09-23T05:16:46.917Z,14.03
2022-09-23T05:21:49.822Z,12.60
2022-09-23T05:26:54.394Z,12.47
2022-09-23T05:31:57.336Z,12.45
2022-09-23T05:37:03.704Z,12.43
2022-09-23T05:42:07.116Z,12.46
2022-09-23T05:47:10.029Z,12.61
2022-09-23T05:52:13.002Z,12.74
2022-09-23T05:57:16.311Z,13.12
2022-09-23T06:02:19.239Z,14.24
2022-09-23T06:07:22.311Z,14.74
2022-09-23T06:12:25.311Z,15.47
2022-09-23T06:17:28.119Z,17.13
2022-09-23T06:22:31.105Z,17.85
2022-09-23T06:27:34.023Z,16.99
2022-09-23T06:32:37.031Z,19.39
2022-09-23T06:37:43.210Z,20.60
2022-09-23T06:42:49.033Z,19.27
2022-09-23T06:48:06.331Z,18.55
2022-09-23T06:53:09.347Z,18.35
2022-09-23T06:58:12.444Z,19.48
2022-09-23T07:03:15.341Z,20.71
2022-09-23T07:08:18.760Z,22.34
2022-09-23T07:13:21.831Z,24.27
2022-09-23T07:18:26.205Z,25.45
2022-09-23T07:23:29.210Z,24.84
2022-09-23T07:28:32.629Z,24.10
2022-09-23T07:33:42.931Z,24.43
2022-09-23T07:38:47.456Z,25.62
2022-09-23T07:43:55.677Z,25.58
2022-09-23T07:48:59.389Z,25.43
2022-09-23T07:54:02.410Z,24.58
2022-09-23T07:59:09.005Z,22.71
2022-09-23T08:04:14.049Z,21.26
2022-09-23T08:09:22.148Z,21.77
2022-09-23T08:14:25.391Z,24.04
2022-09-23T08:19:28.291Z,24.77
2022-09-23T08:24:32.421Z,23.11
2022-09-23T08:29:35.222Z,20.87
2022-09-23T08:34:38.024Z,19.05
2022-09-23T08:39:40.826Z,17.68
2022-09-23T08:44:49.575Z,16.74
2022-09-23T08:50:08.406Z,16.17
2022-09-23T08:55:15.955Z,15.74
2022-09-23T09:00:23.639Z,15.46
2022-09-23T09:05:28.625Z,15.80
2022-09-23T09:10:41.878Z,16.57
2022-09-23T09:15:56.384Z,16.09
2022-09-23T09:21:16.096Z,15.87
2022-09-23T09:26:28.458Z,16.89
2022-09-23T09:31:38.033Z,17.45
2022-09-23T09:37:06.731Z,16.98
2022-09-23T09:42:21.028Z,16.66
2022-09-23T09:47:46.718Z,16.21
2022-09-23T09:52:49.704Z,15.98
2022-09-23T09:58:02.013Z,16.51
2022-09-23T10:03:18.349Z,16.99
2022-09-23T10:08:37.321Z,16.31
2022-09-23T10:13:40.236Z,16.22
2022-09-23T10:18:46.199Z,16.42
2022-09-23T10:23:52.746Z,16.77
2022-09-23T10:28:55.818Z,17.16
2022-09-23T10:34:28.086Z,17.63
2022-09-23T10:39:49.942Z,17.91
2022-09-23T10:45:26.232Z,17.55
2022-09-23T10:50:46.238Z,16.97
2022-09-23T10:56:06.562Z,16.44
2022-09-23T11:01:13.619Z,16.23
2022-09-23T11:06:35.612Z,16.30
2022-09-23T11:11:47.326Z,16.59
2022-09-23T11:17:02.242Z,16.79
2022-09-23T11:22:16.076Z,16.91
2022-09-23T11:27:27.786Z,17.14
2022-09-23T11:32:44.824Z,17.52
2022-09-23T11:37:52.847Z,17.57
2022-09-23T11:43:26.063Z,17.26
2022-09-23T11:48:42.281Z,16.66
2022-09-23T11:53:57.886Z,15.96
2022-09-23T11:59:06.660Z,15.28
2022-09-23T12:04:23.446Z,14.72
2022-09-23T12:15:19.647Z,14.60
2022-09-23T12:20:42.527Z,15.38
2022-09-23T12:25:57.306Z,14.69
2022-09-23T12:31:04.025Z,14.11
2022-09-23T12:36:12.352Z,14.55
2022-09-23T12:41:27.837Z,15.90
2022-09-23T12:46:30.741Z,16.41
2022-09-23T12:51:37.423Z,15.58
2022-09-23T12:56:40.228Z,15.08
2022-09-23T13:01:44.567Z,14.79
2022-09-23T13:07:09.563Z,15.25
2022-09-23T13:12:40.451Z,16.01
2022-09-23T13:17:43.350Z,15.53
2022-09-23T13:22:49.027Z,15.33
2022-09-23T13:27:55.508Z,15.23
2022-09-23T13:33:24.632Z,15.30
2022-09-23T13:38:32.253Z,15.42
2022-09-23T13:43:41.342Z,15.50
2022-09-23T13:48:46.863Z,15.69
2022-09-23T13:53:55.367Z,15.79
2022-09-23T13:59:26.372Z,15.80
2022-09-23T14:04:29.268Z,15.66
2022-09-23T14:09:35.447Z,15.55
2022-09-23T14:14:41.083Z,15.52
2022-09-23T14:19:44.512Z,15.51
2022-09-23T14:24:49.548Z,15.46
2022-09-23T14:29:54.040Z,15.37
2022-09-23T14:34:59.602Z,15.32
2022-09-23T14:40:04.149Z,15.24
2022-09-23T14:45:10.116Z,15.17
2022-09-23T14:50:36.997Z,15.08
2022-09-23T14:55:41.735Z,14.88
2022-09-23T15:00:55.918Z,14.94
2022-09-23T15:06:08.750Z,15.73
2022-09-23T15:11:12.359Z,15.18
2022-09-23T15:16:26.663Z,14.64
2022-09-23T15:21:42.350Z,15.58
2022-09-23T15:26:48.912Z,16.59
2022-09-23T15:31:52.075Z,16.70
2022-09-23T15:36:55.148Z,15.67
2022-09-23T15:41:58.870Z,15.02
2022-09-23T15:47:02.391Z,14.60
2022-09-23T15:52:07.981Z,14.64
2022-09-23T15:57:11.376Z,15.62
2022-09-23T16:02:22.667Z,16.41
2022-09-23T16:07:28.453Z,16.47
2022-09-23T16:12:31.449Z,15.48
2022-09-23T16:17:37.780Z,14.79
2022-09-23T16:22:40.740Z,14.56
2022-09-23T16:27:43.645Z,15.11
2022-09-23T16:32:46.548Z,15.54
2022-09-23T16:37:51.186Z,15.88
2022-09-23T16:42:56.040Z,16.12
2022-09-23T16:47:59.663Z,16.37
2022-09-23T16:53:02.570Z,16.63
2022-09-23T16:58:05.471Z,16.86
2022-09-23T17:03:29.881Z,17.16
2022-09-23T17:08:33.383Z,17.48
2022-09-23T17:13:41.226Z,17.15
2022-09-23T17:18:44.222Z,15.69
2022-09-23T17:23:47.143Z,15.67
2022-09-23T17:28:51.876Z,16.32
2022-09-23T17:33:55.294Z,16.49
2022-09-23T17:38:58.197Z,16.51
2022-09-23T17:44:01.328Z,16.58
2022-09-23T17:49:05.727Z,16.67
2022-09-23T17:54:09.165Z,16.87
2022-09-23T17:59:14.523Z,16.97
2022-09-23T18:04:17.637Z,16.29
2022-09-23T18:09:20.740Z,14.96
2022-09-23T18:14:24.276Z,15.14
2022-09-23T18:19:27.468Z,15.49
2022-09-23T18:24:33.611Z,15.77
2022-09-23T18:29:38.218Z,15.95
2022-09-23T18:34:41.305Z,16.09
2022-09-23T18:39:44.666Z,16.13
2022-09-23T18:44:50.089Z,16.30
2022-09-23T18:50:12.444Z,16.51
2022-09-23T18:55:15.658Z,16.60
2022-09-23T19:00:19.602Z,16.55
2022-09-23T19:05:22.587Z,16.64
2022-09-23T19:10:25.701Z,16.72
2022-09-23T19:15:28.813Z,16.79
2022-09-23T19:20:31.811Z,17.00
2022-09-23T19:25:36.357Z,17.01
2022-09-23T19:30:39.570Z,16.90
2022-09-23T19:35:48.731Z,16.72
2022-09-23T19:40:52.270Z,16.56
2022-09-23T19:45:55.857Z,16.54
2022-09-23T19:50:58.864Z,16.70
2022-09-23T19:56:05.058Z,16.86
2022-09-23T20:01:08.352Z,16.95
2022-09-23T20:06:11.773Z,16.90
2022-09-23T20:11:23.647Z,16.82
2022-09-23T20:16:33.717Z,16.64
2022-09-23T20:21:36.764Z,16.51
2022-09-23T20:26:58.510Z,16.47
2022-09-23T20:32:01.779Z,16.32
2022-09-23T20:37:06.230Z,16.15
2022-09-23T20:42:10.344Z,16.07
2022-09-23T20:47:14.959Z,15.99
2022-09-23T20:52:20.513Z,16.04
2022-09-23T20:57:23.408Z,16.14
2022-09-23T21:02:27.467Z,16.25
2022-09-23T21:07:32.291Z,16.34
2022-09-23T21:12:35.499Z,16.35
2022-09-23T21:17:38.426Z,16.34
2022-09-23T21:22:41.420Z,16.29
2022-09-23T21:27:45.235Z,16.28
2022-09-23T21:32:48.038Z,16.06
2022-09-23T21:37:50.838Z,15.81
2022-09-23T21:42:53.638Z,15.64
2022-09-23T21:47:56.542Z,15.51
2022-09-23T21:53:00.987Z,15.44
2022-09-23T21:58:04.707Z,15.45
2022-09-23T22:03:07.715Z,15.59
2022-09-23T22:08:10.823Z,15.72
2022-09-23T22:13:13.623Z,15.71
2022-09-23T22:18:19.495Z,15.75
2022-09-23T22:23:22.399Z,15.84
2022-09-23T22:28:43.735Z,15.87
2022-09-23T22:33:50.558Z,15.93
2022-09-23T22:38:59.184Z,15.89
2022-09-23T22:44:03.816Z,15.73
2022-09-23T22:49:09.389Z,15.67
2022-09-23T22:54:12.502Z,15.75
2022-09-23T22:59:15.404Z,15.86
2022-09-23T23:04:18.264Z,15.98
2022-09-23T23:09:21.098Z,16.09
2022-09-23T23:14:24.575Z,16.17
2022-09-23T23:19:27.521Z,16.21
2022-09-23T23:24:30.322Z,16.23
2022-09-23T23:29:33.226Z,15.23
2022-09-23T23:34:36.014Z,13.88
2022-09-23T23:39:38.809Z,14.22
2022-09-23T23:44:41.732Z,14.62
2022-09-23T23:49:44.582Z,14.93
2022-09-23T23:54:47.544Z,15.07
2022-09-23T23:59:50.446Z,14.84
